Trail, OR (97541)

3:57 PM PDT on October 31, 2014 (GMT -0700)
Lost Creek Lake | Change Station
CLOSE
Current Station
Personal Weather Station
Location: Trail, OR
Elevation: 1580 ft
Nearby Weather Stations
Active Advisory: Frost Advisory

Elev 1580 ft 42.66 °N, 122.69 °W | Updated 4 minutes ago

Overcast
Overcast
58.4 °F
Feels Like 58.4 °F
N
3.0
Wind Variable Wind from ENE
Gusts 8.0 mph

Today
High -- | Low -- °F
--% Chance of Precip.
Yesterday
High -- | Low -- °F
Precip. -- in
7:43 AM 6:04 PM
First Quarter, 60% visible
Pressure 29.81 in
Visibility 10.0 miles
Clouds Few 800 ft
Scattered Clouds 6000 ft
Mostly Cloudy 11000 ft
Dew Point 42 °F
Humidity 54%
Rainfall 0.48 in
Snow Depth Not available.
UV 1 out of 12
Pollen .40 out of 12
Air Quality Not available.
Flu Activity Not available.
SPECI KMFR 312251Z 35006KT 10SM FEW008 SCT060 BKN110 14/07 A2981 RMK AO2

More Conditions Fewer Conditions

Pressure 29.81 in
Visibility 10.0 miles
Clouds Few 800 ft
Scattered Clouds 6000 ft
Mostly Cloudy 11000 ft
Dew Point 42 °F
Humidity 54%
Rainfall 0.48 in
Snow Depth Not available.
UV 1 out of 12
Pollen .40 out of 12
Air Quality Not available.
Flu Activity Not available.
SPECI KMFR 312251Z 35006KT 10SM FEW008 SCT060 BKN110 14/07 A2981 RMK AO2

More Conditions Fewer Conditions

10-Day Weather Forecast

Almanac

Astronomy

Oct. 31, 2014 Rise Set
Actual Time
Civil Twilight
Nautical Twilight
Astronomical Twilight
Moon
Length of Visible Light
Length of Day
Tomorrow will be .
, % of the Moon is Illuminated

Today's Extremes

State Highs State Lows

Community

WunderPhotos

Upload Photos

1,766,770 photos uploaded!

WunderBlogs® & News

Nearby

Air Quality

  Air Quality AQ Index Pollutant
Not available.

Snow Depth

Station Depth Elevation

Earthquake Activity

City Distance Mag. Time & Date
Minimum magnitude displayed is 2.5.

Coastal Water Temperatures

Place Temperature

Nearby Weather Stations